Ramillies, Belgium
Current Conditions -  °F | °C
As of 4:13 AM on Friday 28 Nov 2014 (Local Time) from EBBE Reporting Station
Few Clouds Few Clouds  
Wind Chill: 41°   Ceiling: Unl
Heat Index: 45°   Visibility: 3mi
Dew Point: 43°   Wind: 6mph
Humidity: 93%   Direction: 90°E
Pressure: 29.68"   Gusts: NA
Location:  50.63°N, 4.9°E
Report Text: EBBE 280313Z AUTO 09005KT 5000 FEW085/// 07/06 Q1005 WHT
Loading
Personal Weather Stations






























Interactive Weather Map New forecast layout! Learn more

10-Day Weather Forecast

Advertisements
Track Severe Weather on mobile